AEE159 LGTS-LGAV
Flight info
| Callsign | AEE159 |
|---|---|
| Flight time | 0h 31m |
| Altitude | 27000 |
| Route | LEKPO UL617 SKP UM749 ROPOX |
| Aircraft | A320/M-SDE3FGHIRWY/LB1 |
Departure
| Time | 2026-02-19 13:43 |
|---|---|
| Airport | Thessaloniki Macedonia International Airport (LGTS) |
Arrival
| Time | 2026-02-19 14:14 |
|---|---|
| Airport | Athens Eleftherios Venizelos International Airport (LGAV) |
| Time | Latitude | Longitude | Altitude | Speed | Heading |
|---|---|---|---|---|---|
| 2026-02-19 13:24 | 40.52322 | 22.97575 | 29 ft | 0 kts | 45° |
| 2026-02-19 13:28 | 40.52321 | 22.97573 | 28 ft | 2 kts | 45° |
| 2026-02-19 13:28 | 40.52304 | 22.97552 | 28 ft | 2 kts | 45° |
| 2026-02-19 13:30 | 40.52294 | 22.97538 | 28 ft | 3 kts | 60° |
| 2026-02-19 13:30 | 40.52288 | 22.97517 | 28 ft | 3 kts | 96° |
| 2026-02-19 13:30 | 40.52293 | 22.97496 | 28 ft | 1 kts | 128° |
| 2026-02-19 13:30 | 40.52293 | 22.97495 | 28 ft | 0 kts | 128° |
| 2026-02-19 13:35 | 40.52277 | 22.97516 | 42 ft | 11 kts | 134° |
| 2026-02-19 13:35 | 40.52196 | 22.97619 | 28 ft | 18 kts | 142° |
| 2026-02-19 13:36 | 40.52098 | 22.97722 | 29 ft | 19 kts | 135° |
| 2026-02-19 13:36 | 40.51967 | 22.98032 | 29 ft | 21 kts | 104° |
| 2026-02-19 13:36 | 40.51930 | 22.98225 | 29 ft | 23 kts | 104° |
| 2026-02-19 13:37 | 40.51890 | 22.98432 | 28 ft | 24 kts | 105° |
| 2026-02-19 13:37 | 40.51872 | 22.98532 | 28 ft | 10 kts | 103° |
| 2026-02-19 13:37 | 40.51855 | 22.98632 | 28 ft | 12 kts | 104° |
| 2026-02-19 13:37 | 40.51831 | 22.98752 | 28 ft | 15 kts | 105° |
| 2026-02-19 13:38 | 40.51767 | 22.98804 | 29 ft | 7 kts | 191° |
| 2026-02-19 13:38 | 40.51765 | 22.98803 | 29 ft | 0 kts | 193° |
| 2026-02-19 13:40 | 40.51762 | 22.98802 | 29 ft | 2 kts | 194° |
| 2026-02-19 13:40 | 40.51754 | 22.98799 | 29 ft | 0 kts | 198° |
| 2026-02-19 13:41 | 40.51753 | 22.98798 | 29 ft | 2 kts | 198° |
| 2026-02-19 13:41 | 40.51698 | 22.98731 | 29 ft | 17 kts | 240° |
| 2026-02-19 13:41 | 40.51687 | 22.98617 | 28 ft | 1 kts | 281° |
| 2026-02-19 13:42 | 40.51699 | 22.98553 | 28 ft | 28 kts | 284° |
| 2026-02-19 13:42 | 40.51804 | 22.97986 | 29 ft | 97 kts | 284° |
| 2026-02-19 13:42 | 40.52012 | 22.96885 | 28 ft | 148 kts | 283° |
| 2026-02-19 13:42 | 40.52287 | 22.95429 | 229 ft | 172 kts | 282° |
| 2026-02-19 13:43 | 40.52619 | 22.93895 | 843 ft | 173 kts | 284° |
| 2026-02-19 13:43 | 40.52984 | 22.92393 | 1539 ft | 173 kts | 284° |
| 2026-02-19 13:43 | 40.53367 | 22.90935 | 2291 ft | 163 kts | 286° |
| 2026-02-19 13:43 | 40.53746 | 22.89519 | 2820 ft | 166 kts | 285° |
| 2026-02-19 13:44 | 40.54010 | 22.88023 | 3202 ft | 174 kts | 260° |
| 2026-02-19 13:44 | 40.52347 | 22.85792 | 3645 ft | 204 kts | 182° |
| 2026-02-19 13:44 | 40.50871 | 22.86146 | 3909 ft | 229 kts | 164° |
| 2026-02-19 13:45 | 40.49272 | 22.86781 | 4367 ft | 249 kts | 164° |
| 2026-02-19 13:45 | 40.47673 | 22.87443 | 5623 ft | 231 kts | 165° |
| 2026-02-19 13:45 | 40.46448 | 22.87953 | 6471 ft | 228 kts | 166° |
| 2026-02-19 13:45 | 40.44923 | 22.88581 | 7247 ft | 231 kts | 166° |
| 2026-02-19 13:46 | 40.43382 | 22.89211 | 8018 ft | 234 kts | 167° |
| 2026-02-19 13:46 | 40.41778 | 22.89857 | 8531 ft | 251 kts | 167° |
| 2026-02-19 13:46 | 40.40029 | 22.90552 | 8887 ft | 273 kts | 167° |
| 2026-02-19 13:46 | 40.38173 | 22.91291 | 9552 ft | 282 kts | 167° |
| 2026-02-19 13:47 | 40.36283 | 22.92045 | 10276 ft | 288 kts | 167° |
| 2026-02-19 13:47 | 40.34293 | 22.92833 | 10546 ft | 310 kts | 167° |
| 2026-02-19 13:47 | 40.32150 | 22.93673 | 10716 ft | 333 kts | 167° |
| 2026-02-19 13:47 | 40.29877 | 22.94567 | 11071 ft | 347 kts | 167° |
| 2026-02-19 13:48 | 40.27545 | 22.95490 | 11671 ft | 352 kts | 167° |
| 2026-02-19 13:48 | 40.22819 | 22.97377 | 12919 ft | 361 kts | 168° |
| 2026-02-19 13:48 | 40.20402 | 22.98340 | 13570 ft | 365 kts | 168° |
| 2026-02-19 13:49 | 40.17951 | 22.99310 | 14170 ft | 369 kts | 168° |
| 2026-02-19 13:49 | 40.15460 | 23.00293 | 14485 ft | 382 kts | 168° |
| 2026-02-19 13:49 | 40.12856 | 23.01317 | 14606 ft | 398 kts | 168° |
| 2026-02-19 13:49 | 40.11075 | 23.02017 | 14688 ft | 408 kts | 168° |
| 2026-02-19 13:50 | 40.07359 | 23.03483 | 14974 ft | 423 kts | 167° |
| 2026-02-19 13:50 | 40.05487 | 23.04225 | 15252 ft | 426 kts | 167° |
| 2026-02-19 13:50 | 40.02639 | 23.05352 | 15708 ft | 430 kts | 167° |
| 2026-02-19 13:50 | 39.99725 | 23.06503 | 16184 ft | 433 kts | 167° |
| 2026-02-19 13:51 | 39.96828 | 23.07644 | 16659 ft | 436 kts | 168° |
| 2026-02-19 13:51 | 39.93943 | 23.08776 | 17114 ft | 440 kts | 168° |
| 2026-02-19 13:51 | 39.91003 | 23.09925 | 17574 ft | 443 kts | 168° |
| 2026-02-19 13:51 | 39.88038 | 23.11083 | 18031 ft | 446 kts | 168° |
| 2026-02-19 13:52 | 39.85057 | 23.12247 | 18472 ft | 450 kts | 168° |
| 2026-02-19 13:52 | 39.79017 | 23.14604 | 19281 ft | 456 kts | 167° |
| 2026-02-19 13:52 | 39.75976 | 23.15794 | 19685 ft | 458 kts | 167° |
| 2026-02-19 13:53 | 39.72904 | 23.16996 | 20087 ft | 461 kts | 167° |
| 2026-02-19 13:53 | 39.69830 | 23.18196 | 20485 ft | 463 kts | 167° |
| 2026-02-19 13:53 | 39.66731 | 23.19403 | 20857 ft | 466 kts | 167° |
| 2026-02-19 13:53 | 39.63620 | 23.20639 | 21213 ft | 470 kts | 164° |
| 2026-02-19 13:54 | 39.60589 | 23.22327 | 21542 ft | 475 kts | 159° |
| 2026-02-19 13:54 | 39.57575 | 23.24101 | 21880 ft | 477 kts | 159° |
| 2026-02-19 13:54 | 39.54551 | 23.25890 | 22203 ft | 479 kts | 159° |
| 2026-02-19 13:54 | 39.51510 | 23.27693 | 22528 ft | 481 kts | 159° |
| 2026-02-19 13:55 | 39.48459 | 23.29505 | 22858 ft | 483 kts | 159° |
| 2026-02-19 13:55 | 39.45398 | 23.31322 | 23181 ft | 486 kts | 159° |
| 2026-02-19 13:55 | 39.42353 | 23.33124 | 23500 ft | 488 kts | 159° |
| 2026-02-19 13:55 | 39.39263 | 23.34945 | 23818 ft | 490 kts | 159° |
| 2026-02-19 13:56 | 39.36150 | 23.36774 | 24089 ft | 492 kts | 159° |
| 2026-02-19 13:56 | 39.29893 | 23.40441 | 24611 ft | 496 kts | 159° |
| 2026-02-19 13:56 | 39.26730 | 23.42293 | 24885 ft | 499 kts | 159° |
| 2026-02-19 13:57 | 39.23576 | 23.44144 | 25144 ft | 495 kts | 159° |
| 2026-02-19 13:57 | 39.20523 | 23.45947 | 25150 ft | 473 kts | 159° |
| 2026-02-19 13:57 | 39.17577 | 23.47686 | 24902 ft | 458 kts | 159° |
| 2026-02-19 13:57 | 39.14716 | 23.49366 | 24669 ft | 447 kts | 159° |
| 2026-02-19 13:58 | 39.11842 | 23.51042 | 24396 ft | 464 kts | 159° |
| 2026-02-19 13:58 | 39.08827 | 23.52783 | 23715 ft | 481 kts | 159° |
| 2026-02-19 13:58 | 39.05811 | 23.54526 | 22971 ft | 481 kts | 159° |
| 2026-02-19 13:58 | 39.02767 | 23.56298 | 22550 ft | 466 kts | 159° |
| 2026-02-19 13:59 | 38.99876 | 23.57994 | 22080 ft | 448 kts | 159° |
| 2026-02-19 13:59 | 38.97105 | 23.59618 | 21076 ft | 437 kts | 159° |
| 2026-02-19 13:59 | 38.94403 | 23.61195 | 20578 ft | 416 kts | 159° |
| 2026-02-19 13:59 | 38.91805 | 23.62707 | 20092 ft | 407 kts | 159° |
| 2026-02-19 14:00 | 38.89234 | 23.64191 | 19570 ft | 404 kts | 160° |
| 2026-02-19 14:00 | 38.84021 | 23.67186 | 17731 ft | 421 kts | 159° |
| 2026-02-19 14:00 | 38.81316 | 23.68742 | 16710 ft | 428 kts | 159° |
| 2026-02-19 14:01 | 38.78629 | 23.70298 | 16392 ft | 422 kts | 159° |
| 2026-02-19 14:01 | 38.75939 | 23.71857 | 16140 ft | 422 kts | 159° |
| 2026-02-19 14:01 | 38.73257 | 23.73410 | 15885 ft | 426 kts | 159° |
| 2026-02-19 14:01 | 38.70566 | 23.74961 | 15303 ft | 430 kts | 159° |
| 2026-02-19 14:02 | 38.67871 | 23.76514 | 14537 ft | 428 kts | 159° |
| 2026-02-19 14:02 | 38.65158 | 23.78082 | 13755 ft | 426 kts | 159° |
| 2026-02-19 14:02 | 38.62465 | 23.79634 | 13174 ft | 419 kts | 159° |
| 2026-02-19 14:02 | 38.59909 | 23.81104 | 12913 ft | 411 kts | 159° |
| 2026-02-19 14:03 | 38.57301 | 23.82604 | 12373 ft | 408 kts | 159° |
| 2026-02-19 14:03 | 38.54722 | 23.84085 | 11753 ft | 402 kts | 159° |
| 2026-02-19 14:03 | 38.52210 | 23.85524 | 10995 ft | 401 kts | 159° |
| 2026-02-19 14:03 | 38.49698 | 23.86963 | 10637 ft | 387 kts | 159° |
| 2026-02-19 14:04 | 38.42832 | 23.90914 | 10287 ft | 336 kts | 159° |
| 2026-02-19 14:04 | 38.40684 | 23.92140 | 9408 ft | 341 kts | 159° |
| 2026-02-19 14:05 | 38.38511 | 23.93368 | 8455 ft | 339 kts | 159° |
| 2026-02-19 14:05 | 38.36459 | 23.94535 | 8299 ft | 316 kts | 159° |
| 2026-02-19 14:05 | 38.34490 | 23.95661 | 8170 ft | 305 kts | 159° |
| 2026-02-19 14:05 | 38.32588 | 23.96750 | 8043 ft | 295 kts | 159° |
| 2026-02-19 14:06 | 38.30742 | 23.97806 | 7891 ft | 286 kts | 159° |
| 2026-02-19 14:06 | 38.28930 | 23.98839 | 7589 ft | 283 kts | 159° |
| 2026-02-19 14:06 | 38.27142 | 23.99851 | 7039 ft | 280 kts | 159° |
| 2026-02-19 14:06 | 38.25366 | 24.00851 | 6464 ft | 278 kts | 159° |
| 2026-02-19 14:07 | 38.23628 | 24.01834 | 5882 ft | 275 kts | 159° |
| 2026-02-19 14:07 | 38.22325 | 24.02574 | 5436 ft | 272 kts | 159° |
| 2026-02-19 14:07 | 38.20607 | 24.03546 | 4897 ft | 268 kts | 159° |
| 2026-02-19 14:07 | 38.18944 | 24.04495 | 4670 ft | 252 kts | 159° |
| 2026-02-19 14:08 | 38.17701 | 24.05204 | 4564 ft | 243 kts | 160° |
| 2026-02-19 14:08 | 38.14834 | 24.06839 | 4147 ft | 231 kts | 160° |
| 2026-02-19 14:08 | 38.13337 | 24.07678 | 3733 ft | 234 kts | 160° |
| 2026-02-19 14:09 | 38.11877 | 24.08482 | 3607 ft | 223 kts | 164° |
| 2026-02-19 14:09 | 38.10403 | 24.08687 | 3472 ft | 207 kts | 191° |
| 2026-02-19 14:09 | 38.09105 | 24.08044 | 3345 ft | 197 kts | 214° |
| 2026-02-19 14:09 | 38.08038 | 24.07047 | 3214 ft | 189 kts | 216° |
| 2026-02-19 14:10 | 38.07000 | 24.06051 | 3118 ft | 185 kts | 216° |
| 2026-02-19 14:10 | 38.05973 | 24.05068 | 3134 ft | 186 kts | 216° |
| 2026-02-19 14:10 | 38.04907 | 24.04051 | 3367 ft | 202 kts | 217° |
| 2026-02-19 14:10 | 38.03833 | 24.03024 | 3378 ft | 181 kts | 216° |
| 2026-02-19 14:11 | 38.02878 | 24.02077 | 3119 ft | 173 kts | 216° |
| 2026-02-19 14:11 | 38.01925 | 24.01186 | 2621 ft | 171 kts | 216° |
| 2026-02-19 14:11 | 38.00992 | 24.00286 | 2174 ft | 160 kts | 215° |
| 2026-02-19 14:11 | 38.00153 | 23.99500 | 1867 ft | 142 kts | 215° |
| 2026-02-19 14:12 | 37.99390 | 23.98763 | 1513 ft | 134 kts | 215° |
| 2026-02-19 14:12 | 37.97903 | 23.97369 | 1113 ft | 130 kts | 214° |
| 2026-02-19 14:12 | 37.97184 | 23.96676 | 957 ft | 131 kts | 215° |
| 2026-02-19 14:13 | 37.96454 | 23.95983 | 778 ft | 131 kts | 214° |
| 2026-02-19 14:13 | 37.95720 | 23.95292 | 581 ft | 132 kts | 217° |
| 2026-02-19 14:13 | 37.94991 | 23.94594 | 426 ft | 131 kts | 216° |
| 2026-02-19 14:13 | 37.94277 | 23.93917 | 307 ft | 119 kts | 216° |
| 2026-02-19 14:14 | 37.93698 | 23.93366 | 296 ft | 86 kts | 217° |
| 2026-02-19 14:14 | 37.93336 | 23.93025 | 293 ft | 44 kts | 217° |
| 2026-02-19 14:14 | 37.93122 | 23.92862 | 289 ft | 32 kts | 198° |
| 2026-02-19 14:14 | 37.92941 | 23.92854 | 300 ft | 24 kts | 131° |
| 2026-02-19 14:15 | 37.92977 | 23.92955 | 299 ft | 14 kts | 36° |
| 2026-02-19 14:15 | 37.93061 | 23.93036 | 302 ft | 16 kts | 38° |
| 2026-02-19 14:15 | 37.93138 | 23.93110 | 302 ft | 7 kts | 36° |
| 2026-02-19 14:15 | 37.93183 | 23.93151 | 302 ft | 9 kts | 36° |
| 2026-02-19 14:16 | 37.93240 | 23.93206 | 301 ft | 11 kts | 37° |
| 2026-02-19 14:16 | 37.93426 | 23.93393 | 301 ft | 15 kts | 59° |
| 2026-02-19 14:16 | 37.93389 | 23.93511 | 301 ft | 16 kts | 129° |
| 2026-02-19 14:17 | 37.93314 | 23.93634 | 303 ft | 19 kts | 128° |
| 2026-02-19 14:17 | 37.93226 | 23.93781 | 301 ft | 23 kts | 127° |
| 2026-02-19 14:17 | 37.93124 | 23.93951 | 301 ft | 26 kts | 126° |
| 2026-02-19 14:17 | 37.93010 | 23.94143 | 302 ft | 29 kts | 127° |
| 2026-02-19 14:18 | 37.92928 | 23.94278 | 301 ft | 13 kts | 127° |
| 2026-02-19 14:18 | 37.92881 | 23.94363 | 301 ft | 13 kts | 116° |
| 2026-02-19 14:18 | 37.92927 | 23.94450 | 303 ft | 16 kts | 34° |
| 2026-02-19 14:18 | 37.93044 | 23.94560 | 301 ft | 23 kts | 37° |
| 2026-02-19 14:19 | 37.93173 | 23.94682 | 302 ft | 23 kts | 36° |
| 2026-02-19 14:19 | 37.93309 | 23.94802 | 301 ft | 25 kts | 34° |
| 2026-02-19 14:19 | 37.93447 | 23.94943 | 301 ft | 26 kts | 38° |
| 2026-02-19 14:19 | 37.93569 | 23.95056 | 300 ft | 13 kts | 36° |
| 2026-02-19 14:20 | 37.93612 | 23.95007 | 300 ft | 0 kts | 296° |
| 2026-02-19 14:20 | 37.93661 | 23.94999 | 302 ft | 14 kts | 38° |